sensor_id;sensor_type;location;lat;lon;timestamp;temperature;humidity
74540;SHT31;66042;51.090;-115.340;2023-08-17T00:01:58;46.74;14.21
74540;SHT31;66042;51.090;-115.340;2023-08-17T00:04:25;46.52;14.69
74540;SHT31;66042;51.090;-115.340;2023-08-17T00:06:52;46.19;14.66
74540;SHT31;66042;51.090;-115.340;2023-08-17T00:09:19;45.72;14.79
74540;SHT31;66042;51.090;-115.340;2023-08-17T00:11:47;45.01;15.14
74540;SHT31;66042;51.090;-115.340;2023-08-17T00:14:13;44.22;15.72
74540;SHT31;66042;51.090;-115.340;2023-08-17T00:16:40;43.57;15.87
74540;SHT31;66042;51.090;-115.340;2023-08-17T00:19:07;42.90;16.34
74540;SHT31;66042;51.090;-115.340;2023-08-17T00:21:34;42.36;16.78
74540;SHT31;66042;51.090;-115.340;2023-08-17T00:24:02;41.81;16.77
74540;SHT31;66042;51.090;-115.340;2023-08-17T00:26:29;41.39;16.58
74540;SHT31;66042;51.090;-115.340;2023-08-17T00:28:57;40.88;15.76
74540;SHT31;66042;51.090;-115.340;2023-08-17T00:31:23;40.44;15.82
74540;SHT31;66042;51.090;-115.340;2023-08-17T00:33:50;40.06;15.74
74540;SHT31;66042;51.090;-115.340;2023-08-17T00:36:17;39.63;16.15
74540;SHT31;66042;51.090;-115.340;2023-08-17T00:38:44;39.22;16.64
74540;SHT31;66042;51.090;-115.340;2023-08-17T00:41:11;38.81;16.50
74540;SHT31;66042;51.090;-115.340;2023-08-17T00:43:38;38.34;16.44
74540;SHT31;66042;51.090;-115.340;2023-08-17T00:46:05;37.95;17.96
74540;SHT31;66042;51.090;-115.340;2023-08-17T00:48:33;37.52;18.55
74540;SHT31;66042;51.090;-115.340;2023-08-17T00:51:00;37.27;19.45
74540;SHT31;66042;51.090;-115.340;2023-08-17T00:53:29;36.99;20.18
74540;SHT31;66042;51.090;-115.340;2023-08-17T00:55:57;36.76;19.97
74540;SHT31;66042;51.090;-115.340;2023-08-17T00:58:26;36.57;19.25
74540;SHT31;66042;51.090;-115.340;2023-08-17T01:00:54;36.30;18.88
74540;SHT31;66042;51.090;-115.340;2023-08-17T01:03:21;35.91;17.87
74540;SHT31;66042;51.090;-115.340;2023-08-17T01:05:50;35.60;18.14
74540;SHT31;66042;51.090;-115.340;2023-08-17T01:08:17;35.39;18.34
74540;SHT31;66042;51.090;-115.340;2023-08-17T01:10:52;35.13;18.83
74540;SHT31;66042;51.090;-115.340;2023-08-17T01:13:44;34.82;18.75
74540;SHT31;66042;51.090;-115.340;2023-08-17T01:16:21;34.63;18.86
74540;SHT31;66042;51.090;-115.340;2023-08-17T01:18:55;34.47;18.89
74540;SHT31;66042;51.090;-115.340;2023-08-17T01:21:29;34.29;18.81
74540;SHT31;66042;51.090;-115.340;2023-08-17T01:24:08;34.15;19.35
74540;SHT31;66042;51.090;-115.340;2023-08-17T01:26:37;33.92;19.19
74540;SHT31;66042;51.090;-115.340;2023-08-17T01:29:03;33.77;19.18
74540;SHT31;66042;51.090;-115.340;2023-08-17T01:31:36;33.63;19.54
74540;SHT31;66042;51.090;-115.340;2023-08-17T01:34:58;33.45;19.71
74540;SHT31;66042;51.090;-115.340;2023-08-17T01:37:42;33.32;20.15
74540;SHT31;66042;51.090;-115.340;2023-08-17T01:40:10;33.20;19.98
74540;SHT31;66042;51.090;-115.340;2023-08-17T01:42:40;33.04;19.98
74540;SHT31;66042;51.090;-115.340;2023-08-17T01:45:09;32.90;20.38
74540;SHT31;66042;51.090;-115.340;2023-08-17T01:47:37;32.72;22.11
74540;SHT31;66042;51.090;-115.340;2023-08-17T01:50:04;32.50;23.73
74540;SHT31;66042;51.090;-115.340;2023-08-17T01:52:32;32.29;24.61
74540;SHT31;66042;51.090;-115.340;2023-08-17T01:54:59;32.12;25.09
74540;SHT31;66042;51.090;-115.340;2023-08-17T01:57:26;31.96;25.06
74540;SHT31;66042;51.090;-115.340;2023-08-17T01:59:53;31.77;25.26
74540;SHT31;66042;51.090;-115.340;2023-08-17T02:02:20;31.51;25.76
74540;SHT31;66042;51.090;-115.340;2023-08-17T02:04:47;31.37;26.17
74540;SHT31;66042;51.090;-115.340;2023-08-17T02:07:15;31.18;26.64
74540;SHT31;66042;51.090;-115.340;2023-08-17T02:09:41;30.97;26.99
74540;SHT31;66042;51.090;-115.340;2023-08-17T02:12:09;30.72;27.46
74540;SHT31;66042;51.090;-115.340;2023-08-17T02:14:35;30.53;27.85
74540;SHT31;66042;51.090;-115.340;2023-08-17T02:17:03;30.38;28.18
74540;SHT31;66042;51.090;-115.340;2023-08-17T02:19:31;30.25;28.40
74540;SHT31;66042;51.090;-115.340;2023-08-17T02:21:58;30.08;28.64
74540;SHT31;66042;51.090;-115.340;2023-08-17T02:24:26;29.91;28.78
74540;SHT31;66042;51.090;-115.340;2023-08-17T02:26:53;29.74;29.15
74540;SHT31;66042;51.090;-115.340;2023-08-17T02:29:20;29.59;29.69
74540;SHT31;66042;51.090;-115.340;2023-08-17T02:31:47;29.38;29.66
74540;SHT31;66042;51.090;-115.340;2023-08-17T02:34:13;29.22;30.10
74540;SHT31;66042;51.090;-115.340;2023-08-17T02:36:41;28.99;30.44
74540;SHT31;66042;51.090;-115.340;2023-08-17T02:39:08;28.85;30.36
74540;SHT31;66042;51.090;-115.340;2023-08-17T02:41:35;28.77;30.50
74540;SHT31;66042;51.090;-115.340;2023-08-17T02:44:02;28.58;31.27
74540;SHT31;66042;51.090;-115.340;2023-08-17T02:46:29;28.43;31.47
74540;SHT31;66042;51.090;-115.340;2023-08-17T02:48:58;28.33;31.85
74540;SHT31;66042;51.090;-115.340;2023-08-17T02:51:24;28.15;32.13
74540;SHT31;66042;51.090;-115.340;2023-08-17T02:53:51;28.01;32.18
74540;SHT31;66042;51.090;-115.340;2023-08-17T02:56:18;27.94;32.35
74540;SHT31;66042;51.090;-115.340;2023-08-17T02:58:46;27.82;32.37
74540;SHT31;66042;51.090;-115.340;2023-08-17T03:01:13;27.65;32.76
74540;SHT31;66042;51.090;-115.340;2023-08-17T03:03:40;27.51;32.77
74540;SHT31;66042;51.090;-115.340;2023-08-17T03:06:07;27.43;33.08
74540;SHT31;66042;51.090;-115.340;2023-08-17T03:08:35;27.31;33.14
74540;SHT31;66042;51.090;-115.340;2023-08-17T03:11:02;27.16;33.47
74540;SHT31;66042;51.090;-115.340;2023-08-17T03:13:29;27.03;33.67
74540;SHT31;66042;51.090;-115.340;2023-08-17T03:15:56;26.94;33.58
74540;SHT31;66042;51.090;-115.340;2023-08-17T03:18:22;26.87;33.88
74540;SHT31;66042;51.090;-115.340;2023-08-17T03:20:49;26.71;34.03
74540;SHT31;66042;51.090;-115.340;2023-08-17T03:23:16;26.58;34.04
74540;SHT31;66042;51.090;-115.340;2023-08-17T03:25:43;26.48;34.29
74540;SHT31;66042;51.090;-115.340;2023-08-17T03:28:11;26.38;34.41
74540;SHT31;66042;51.090;-115.340;2023-08-17T03:30:38;26.32;34.59
74540;SHT31;66042;51.090;-115.340;2023-08-17T03:33:04;26.24;34.82
74540;SHT31;66042;51.090;-115.340;2023-08-17T03:35:31;26.12;35.01
74540;SHT31;66042;51.090;-115.340;2023-08-17T03:37:58;26.00;35.09
74540;SHT31;66042;51.090;-115.340;2023-08-17T03:40:25;25.88;35.52
74540;SHT31;66042;51.090;-115.340;2023-08-17T03:42:52;25.74;35.61
74540;SHT31;66042;51.090;-115.340;2023-08-17T03:45:19;25.64;36.05
74540;SHT31;66042;51.090;-115.340;2023-08-17T03:47:46;25.52;36.30
74540;SHT31;66042;51.090;-115.340;2023-08-17T03:50:13;25.44;36.40
74540;SHT31;66042;51.090;-115.340;2023-08-17T03:52:40;25.32;36.77
74540;SHT31;66042;51.090;-115.340;2023-08-17T03:55:06;25.15;36.96
74540;SHT31;66042;51.090;-115.340;2023-08-17T03:57:34;25.06;37.12
74540;SHT31;66042;51.090;-115.340;2023-08-17T04:00:00;24.96;37.36
74540;SHT31;66042;51.090;-115.340;2023-08-17T04:02:28;24.90;37.48
74540;SHT31;66042;51.090;-115.340;2023-08-17T04:04:55;24.81;37.58
74540;SHT31;66042;51.090;-115.340;2023-08-17T04:07:22;24.74;37.67
74540;SHT31;66042;51.090;-115.340;2023-08-17T04:09:49;24.66;37.79
74540;SHT31;66042;51.090;-115.340;2023-08-17T04:12:16;24.58;37.97
74540;SHT31;66042;51.090;-115.340;2023-08-17T04:14:44;24.48;38.41
74540;SHT31;66042;51.090;-115.340;2023-08-17T04:17:11;24.37;38.64
74540;SHT31;66042;51.090;-115.340;2023-08-17T04:19:39;24.29;38.74
74540;SHT31;66042;51.090;-115.340;2023-08-17T04:22:08;24.23;38.78
74540;SHT31;66042;51.090;-115.340;2023-08-17T04:24:35;24.12;39.06
74540;SHT31;66042;51.090;-115.340;2023-08-17T04:27:02;24.00;39.34
74540;SHT31;66042;51.090;-115.340;2023-08-17T04:29:30;23.88;39.54
74540;SHT31;66042;51.090;-115.340;2023-08-17T04:31:58;23.80;39.56
74540;SHT31;66042;51.090;-115.340;2023-08-17T04:34:25;23.74;39.55
74540;SHT31;66042;51.090;-115.340;2023-08-17T04:36:51;23.68;39.58
74540;SHT31;66042;51.090;-115.340;2023-08-17T04:39:19;23.63;39.65
74540;SHT31;66042;51.090;-115.340;2023-08-17T04:41:46;23.56;39.90
74540;SHT31;66042;51.090;-115.340;2023-08-17T04:44:13;23.42;40.32
74540;SHT31;66042;51.090;-115.340;2023-08-17T04:46:40;23.25;40.51
74540;SHT31;66042;51.090;-115.340;2023-08-17T04:49:07;23.17;40.44
74540;SHT31;66042;51.090;-115.340;2023-08-17T04:51:35;23.08;40.78
74540;SHT31;66042;51.090;-115.340;2023-08-17T04:54:02;23.01;40.84
74540;SHT31;66042;51.090;-115.340;2023-08-17T04:56:29;22.97;40.83
74540;SHT31;66042;51.090;-115.340;2023-08-17T04:58:56;22.92;40.79
74540;SHT31;66042;51.090;-115.340;2023-08-17T05:01:23;22.85;40.85
74540;SHT31;66042;51.090;-115.340;2023-08-17T05:03:50;22.77;41.13
74540;SHT31;66042;51.090;-115.340;2023-08-17T05:06:17;22.60;41.45
74540;SHT31;66042;51.090;-115.340;2023-08-17T05:08:44;22.51;41.46
74540;SHT31;66042;51.090;-115.340;2023-08-17T05:11:11;22.45;41.73
74540;SHT31;66042;51.090;-115.340;2023-08-17T05:13:38;22.33;41.92
74540;SHT31;66042;51.090;-115.340;2023-08-17T05:16:05;22.27;42.06
74540;SHT31;66042;51.090;-115.340;2023-08-17T05:18:32;22.24;42.26
74540;SHT31;66042;51.090;-115.340;2023-08-17T05:20:59;22.20;42.31
74540;SHT31;66042;51.090;-115.340;2023-08-17T05:23:26;22.13;42.39
74540;SHT31;66042;51.090;-115.340;2023-08-17T05:25:53;22.04;42.67
74540;SHT31;66042;51.090;-115.340;2023-08-17T05:28:20;21.93;42.77
74540;SHT31;66042;51.090;-115.340;2023-08-17T05:30:47;21.87;42.90
74540;SHT31;66042;51.090;-115.340;2023-08-17T05:33:15;21.77;43.04
74540;SHT31;66042;51.090;-115.340;2023-08-17T05:35:42;21.69;43.26
74540;SHT31;66042;51.090;-115.340;2023-08-17T05:38:09;21.57;43.60
74540;SHT31;66042;51.090;-115.340;2023-08-17T05:40:36;21.43;43.76
74540;SHT31;66042;51.090;-115.340;2023-08-17T05:43:03;21.37;43.74
74540;SHT31;66042;51.090;-115.340;2023-08-17T05:45:30;21.33;43.84
74540;SHT31;66042;51.090;-115.340;2023-08-17T05:48:02;21.26;44.06
74540;SHT31;66042;51.090;-115.340;2023-08-17T05:50:29;21.20;44.31
74540;SHT31;66042;51.090;-115.340;2023-08-17T05:52:56;21.16;44.37
74540;SHT31;66042;51.090;-115.340;2023-08-17T05:55:23;21.15;44.45
74540;SHT31;66042;51.090;-115.340;2023-08-17T05:57:50;21.11;44.51
74540;SHT31;66042;51.090;-115.340;2023-08-17T06:00:17;21.08;44.53
74540;SHT31;66042;51.090;-115.340;2023-08-17T06:02:44;20.98;45.07
74540;SHT31;66042;51.090;-115.340;2023-08-17T06:05:15;20.85;45.01
74540;SHT31;66042;51.090;-115.340;2023-08-17T06:07:42;20.83;44.98
74540;SHT31;66042;51.090;-115.340;2023-08-17T06:10:09;20.80;45.05
74540;SHT31;66042;51.090;-115.340;2023-08-17T06:12:37;20.74;45.14
74540;SHT31;66042;51.090;-115.340;2023-08-17T06:15:04;20.69;45.25
74540;SHT31;66042;51.090;-115.340;2023-08-17T06:17:32;20.64;45.29
74540;SHT31;66042;51.090;-115.340;2023-08-17T06:19:59;20.59;45.40
74540;SHT31;66042;51.090;-115.340;2023-08-17T06:22:28;20.52;45.64
74540;SHT31;66042;51.090;-115.340;2023-08-17T06:24:55;20.43;45.86
74540;SHT31;66042;51.090;-115.340;2023-08-17T06:27:22;20.39;45.82
74540;SHT31;66042;51.090;-115.340;2023-08-17T06:29:49;20.36;45.96
74540;SHT31;66042;51.090;-115.340;2023-08-17T06:32:16;20.20;46.47
74540;SHT31;66042;51.090;-115.340;2023-08-17T06:34:43;20.09;46.54
74540;SHT31;66042;51.090;-115.340;2023-08-17T06:37:10;20.08;46.63
74540;SHT31;66042;51.090;-115.340;2023-08-17T06:39:38;20.00;47.12
74540;SHT31;66042;51.090;-115.340;2023-08-17T06:42:05;19.89;47.36
74540;SHT31;66042;51.090;-115.340;2023-08-17T06:44:32;19.83;47.42
74540;SHT31;66042;51.090;-115.340;2023-08-17T06:46:59;19.83;47.36
74540;SHT31;66042;51.090;-115.340;2023-08-17T06:49:26;19.82;47.41
74540;SHT31;66042;51.090;-115.340;2023-08-17T06:51:53;19.80;47.47
74540;SHT31;66042;51.090;-115.340;2023-08-17T06:54:20;19.73;47.88
74540;SHT31;66042;51.090;-115.340;2023-08-17T06:56:47;19.66;48.04
74540;SHT31;66042;51.090;-115.340;2023-08-17T06:59:14;19.59;48.05
74540;SHT31;66042;51.090;-115.340;2023-08-17T07:01:41;19.59;47.98
74540;SHT31;66042;51.090;-115.340;2023-08-17T07:04:08;19.57;48.18
74540;SHT31;66042;51.090;-115.340;2023-08-17T07:06:35;19.51;48.41
74540;SHT31;66042;51.090;-115.340;2023-08-17T07:09:01;19.43;48.35
74540;SHT31;66042;51.090;-115.340;2023-08-17T07:11:30;19.42;48.41
74540;SHT31;66042;51.090;-115.340;2023-08-17T07:13:57;19.39;48.77
74540;SHT31;66042;51.090;-115.340;2023-08-17T07:16:25;19.32;48.90
74540;SHT31;66042;51.090;-115.340;2023-08-17T07:18:52;19.30;48.84
74540;SHT31;66042;51.090;-115.340;2023-08-17T07:21:19;19.27;48.81
74540;SHT31;66042;51.090;-115.340;2023-08-17T07:23:47;19.23;48.99
74540;SHT31;66042;51.090;-115.340;2023-08-17T07:26:15;19.08;49.51
74540;SHT31;66042;51.090;-115.340;2023-08-17T07:28:44;18.97;49.59
74540;SHT31;66042;51.090;-115.340;2023-08-17T07:31:11;18.94;49.57
74540;SHT31;66042;51.090;-115.340;2023-08-17T07:33:39;18.89;49.81
74540;SHT31;66042;51.090;-115.340;2023-08-17T07:36:06;18.77;50.08
74540;SHT31;66042;51.090;-115.340;2023-08-17T07:38:34;18.74;50.01
74540;SHT31;66042;51.090;-115.340;2023-08-17T07:41:01;18.75;49.99
74540;SHT31;66042;51.090;-115.340;2023-08-17T07:43:28;18.74;50.09
74540;SHT31;66042;51.090;-115.340;2023-08-17T07:45:56;18.65;50.64
74540;SHT31;66042;51.090;-115.340;2023-08-17T07:48:23;18.50;50.81
74540;SHT31;66042;51.090;-115.340;2023-08-17T07:50:50;18.45;51.14
74540;SHT31;66042;51.090;-115.340;2023-08-17T07:53:19;18.39;51.33
74540;SHT31;66042;51.090;-115.340;2023-08-17T07:55:46;18.36;51.30
74540;SHT31;66042;51.090;-115.340;2023-08-17T07:58:13;18.39;51.13
74540;SHT31;66042;51.090;-115.340;2023-08-17T08:00:40;18.38;51.29
74540;SHT31;66042;51.090;-115.340;2023-08-17T08:03:07;18.27;51.47
74540;SHT31;66042;51.090;-115.340;2023-08-17T08:05:34;18.24;51.36
74540;SHT31;66042;51.090;-115.340;2023-08-17T08:08:01;18.25;51.45
74540;SHT31;66042;51.090;-115.340;2023-08-17T08:10:27;18.14;51.82
74540;SHT31;66042;51.090;-115.340;2023-08-17T08:12:54;18.08;51.98
74540;SHT31;66042;51.090;-115.340;2023-08-17T08:15:22;18.02;52.07
74540;SHT31;66042;51.090;-115.340;2023-08-17T08:17:49;18.01;51.99
74540;SHT31;66042;51.090;-115.340;2023-08-17T08:20:17;18.03;51.86
74540;SHT31;66042;51.090;-115.340;2023-08-17T08:22:44;18.03;51.79
74540;SHT31;66042;51.090;-115.340;2023-08-17T08:25:11;17.98;52.09
74540;SHT31;66042;51.090;-115.340;2023-08-17T08:27:37;17.92;51.97
74540;SHT31;66042;51.090;-115.340;2023-08-17T08:30:05;17.91;51.84
74540;SHT31;66042;51.090;-115.340;2023-08-17T08:32:33;17.91;51.67
74540;SHT31;66042;51.090;-115.340;2023-08-17T08:35:00;17.90;51.61
74540;SHT31;66042;51.090;-115.340;2023-08-17T08:37:27;17.90;51.55
74540;SHT31;66042;51.090;-115.340;2023-08-17T08:39:54;17.88;51.64
74540;SHT31;66042;51.090;-115.340;2023-08-17T08:42:22;17.82;51.96
74540;SHT31;66042;51.090;-115.340;2023-08-17T08:44:51;17.74;52.00
74540;SHT31;66042;51.090;-115.340;2023-08-17T08:47:18;17.71;51.89
74540;SHT31;66042;51.090;-115.340;2023-08-17T08:49:49;17.72;51.81
74540;SHT31;66042;51.090;-115.340;2023-08-17T08:52:40;17.69;51.86
74540;SHT31;66042;51.090;-115.340;2023-08-17T08:55:17;17.68;51.94
74540;SHT31;66042;51.090;-115.340;2023-08-17T08:57:47;17.62;52.24
74540;SHT31;66042;51.090;-115.340;2023-08-17T09:00:18;17.57;52.11
74540;SHT31;66042;51.090;-115.340;2023-08-17T09:02:46;17.58;52.07
74540;SHT31;66042;51.090;-115.340;2023-08-17T09:05:15;17.56;51.92
74540;SHT31;66042;51.090;-115.340;2023-08-17T09:07:42;17.52;51.93
74540;SHT31;66042;51.090;-115.340;2023-08-17T09:10:10;17.47;52.08
74540;SHT31;66042;51.090;-115.340;2023-08-17T09:12:39;17.45;52.07
74540;SHT31;66042;51.090;-115.340;2023-08-17T09:15:06;17.40;52.17
74540;SHT31;66042;51.090;-115.340;2023-08-17T09:17:34;17.38;52.48
74540;SHT31;66042;51.090;-115.340;2023-08-17T09:20:01;17.20;52.63
74540;SHT31;66042;51.090;-115.340;2023-08-17T09:22:41;17.14;52.57
74540;SHT31;66042;51.090;-115.340;2023-08-17T09:25:09;17.15;52.55
74540;SHT31;66042;51.090;-115.340;2023-08-17T09:27:37;17.14;52.59
74540;SHT31;66042;51.090;-115.340;2023-08-17T09:30:08;17.18;52.58
74540;SHT31;66042;51.090;-115.340;2023-08-17T09:32:36;17.20;52.59
74540;SHT31;66042;51.090;-115.340;2023-08-17T09:35:03;17.21;52.63
74540;SHT31;66042;51.090;-115.340;2023-08-17T09:37:32;17.18;52.74
74540;SHT31;66042;51.090;-115.340;2023-08-17T09:40:00;17.18;52.71
74540;SHT31;66042;51.090;-115.340;2023-08-17T09:42:27;17.17;52.70
74540;SHT31;66042;51.090;-115.340;2023-08-17T09:44:57;17.16;52.83
74540;SHT31;66042;51.090;-115.340;2023-08-17T09:47:26;17.07;52.97
74540;SHT31;66042;51.090;-115.340;2023-08-17T09:49:53;17.04;52.95
74540;SHT31;66042;51.090;-115.340;2023-08-17T09:52:21;17.01;52.97
74540;SHT31;66042;51.090;-115.340;2023-08-17T09:54:52;17.00;52.95
74540;SHT31;66042;51.090;-115.340;2023-08-17T09:57:20;16.92;53.18
74540;SHT31;66042;51.090;-115.340;2023-08-17T09:59:47;16.85;53.30
74540;SHT31;66042;51.090;-115.340;2023-08-17T10:02:17;16.83;53.40
74540;SHT31;66042;51.090;-115.340;2023-08-17T10:04:53;16.80;53.46
74540;SHT31;66042;51.090;-115.340;2023-08-17T10:07:24;16.81;53.37
74540;SHT31;66042;51.090;-115.340;2023-08-17T10:09:56;16.80;53.34
74540;SHT31;66042;51.090;-115.340;2023-08-17T10:12:33;16.78;53.32
74540;SHT31;66042;51.090;-115.340;2023-08-17T10:15:18;16.75;53.50
74540;SHT31;66042;51.090;-115.340;2023-08-17T10:17:55;16.71;53.53
74540;SHT31;66042;51.090;-115.340;2023-08-17T10:20:35;16.66;53.95
74540;SHT31;66042;51.090;-115.340;2023-08-17T10:23:12;16.51;54.03
74540;SHT31;66042;51.090;-115.340;2023-08-17T10:25:44;16.51;53.99
74540;SHT31;66042;51.090;-115.340;2023-08-17T10:28:14;16.53;54.04
74540;SHT31;66042;51.090;-115.340;2023-08-17T10:30:42;16.53;53.94
74540;SHT31;66042;51.090;-115.340;2023-08-17T10:33:10;16.56;53.82
74540;SHT31;66042;51.090;-115.340;2023-08-17T10:35:37;16.56;53.84
74540;SHT31;66042;51.090;-115.340;2023-08-17T10:38:05;16.56;53.84
74540;SHT31;66042;51.090;-115.340;2023-08-17T10:40:37;16.49;53.96
74540;SHT31;66042;51.090;-115.340;2023-08-17T10:43:06;16.45;53.90
74540;SHT31;66042;51.090;-115.340;2023-08-17T10:45:34;16.45;53.92
74540;SHT31;66042;51.090;-115.340;2023-08-17T10:50:36;16.43;53.78
74540;SHT31;66042;51.090;-115.340;2023-08-17T10:53:13;16.40;53.82
74540;SHT31;66042;51.090;-115.340;2023-08-17T10:55:45;16.38;53.90
74540;SHT31;66042;51.090;-115.340;2023-08-17T10:58:17;16.39;53.86
74540;SHT31;66042;51.090;-115.340;2023-08-17T11:00:44;16.38;53.83
74540;SHT31;66042;51.090;-115.340;2023-08-17T11:03:18;16.38;53.65
74540;SHT31;66042;51.090;-115.340;2023-08-17T11:05:49;16.35;53.54
74540;SHT31;66042;51.090;-115.340;2023-08-17T11:08:27;16.33;53.54
74540;SHT31;66042;51.090;-115.340;2023-08-17T11:11:01;16.28;53.58
74540;SHT31;66042;51.090;-115.340;2023-08-17T11:13:31;16.26;53.39
74540;SHT31;66042;51.090;-115.340;2023-08-17T11:16:02;16.28;53.11
74540;SHT31;66042;51.090;-115.340;2023-08-17T11:18:34;16.27;53.15
74540;SHT31;66042;51.090;-115.340;2023-08-17T11:21:02;16.26;53.29
74540;SHT31;66042;51.090;-115.340;2023-08-17T11:23:36;16.24;53.25
74540;SHT31;66042;51.090;-115.340;2023-08-17T11:26:04;16.23;53.25
74540;SHT31;66042;51.090;-115.340;2023-08-17T11:28:32;16.18;53.40
74540;SHT31;66042;51.090;-115.340;2023-08-17T11:31:07;16.16;53.41
74540;SHT31;66042;51.090;-115.340;2023-08-17T11:33:36;16.19;53.20
74540;SHT31;66042;51.090;-115.340;2023-08-17T11:36:06;16.21;53.06
74540;SHT31;66042;51.090;-115.340;2023-08-17T11:38:35;16.21;53.03
74540;SHT31;66042;51.090;-115.340;2023-08-17T11:41:05;16.21;53.04
74540;SHT31;66042;51.090;-115.340;2023-08-17T11:43:35;16.19;53.11
74540;SHT31;66042;51.090;-115.340;2023-08-17T11:46:03;16.12;53.20
74540;SHT31;66042;51.090;-115.340;2023-08-17T11:48:30;16.10;53.18
74540;SHT31;66042;51.090;-115.340;2023-08-17T11:51:00;16.12;53.06
74540;SHT31;66042;51.090;-115.340;2023-08-17T11:53:32;16.09;52.93
74540;SHT31;66042;51.090;-115.340;2023-08-17T11:56:01;16.08;53.02
74540;SHT31;66042;51.090;-115.340;2023-08-17T11:58:42;16.06;53.17
74540;SHT31;66042;51.090;-115.340;2023-08-17T12:01:11;16.02;53.24
74540;SHT31;66042;51.090;-115.340;2023-08-17T12:03:41;16.00;53.11
74540;SHT31;66042;51.090;-115.340;2023-08-17T12:06:08;16.01;52.99
74540;SHT31;66042;51.090;-115.340;2023-08-17T12:08:38;16.02;52.97
74540;SHT31;66042;51.090;-115.340;2023-08-17T12:11:16;16.02;52.95
74540;SHT31;66042;51.090;-115.340;2023-08-17T12:13:43;16.00;52.96
74540;SHT31;66042;51.090;-115.340;2023-08-17T12:16:18;15.94;52.88
74540;SHT31;66042;51.090;-115.340;2023-08-17T12:18:52;15.92;52.95
74540;SHT31;66042;51.090;-115.340;2023-08-17T12:21:22;15.93;52.98
74540;SHT31;66042;51.090;-115.340;2023-08-17T12:23:49;15.94;52.89
74540;SHT31;66042;51.090;-115.340;2023-08-17T12:26:20;15.94;52.75
74540;SHT31;66042;51.090;-115.340;2023-08-17T12:28:48;15.94;52.49
74540;SHT31;66042;51.090;-115.340;2023-08-17T12:31:26;15.92;52.59
74540;SHT31;66042;51.090;-115.340;2023-08-17T12:33:56;15.92;52.64
74540;SHT31;66042;51.090;-115.340;2023-08-17T12:36:23;15.91;52.62
74540;SHT31;66042;51.090;-115.340;2023-08-17T12:38:49;15.88;52.39
74540;SHT31;66042;51.090;-115.340;2023-08-17T12:41:16;15.88;52.49
74540;SHT31;66042;51.090;-115.340;2023-08-17T12:43:43;15.87;52.19
74540;SHT31;66042;51.090;-115.340;2023-08-17T12:46:09;15.87;52.13
74540;SHT31;66042;51.090;-115.340;2023-08-17T12:48:37;15.88;52.13
74540;SHT31;66042;51.090;-115.340;2023-08-17T12:51:04;15.89;51.96
74540;SHT31;66042;51.090;-115.340;2023-08-17T12:53:31;15.91;51.96
74540;SHT31;66042;51.090;-115.340;2023-08-17T12:55:58;15.95;51.98
74540;SHT31;66042;51.090;-115.340;2023-08-17T12:58:24;15.97;51.85
74540;SHT31;66042;51.090;-115.340;2023-08-17T13:00:51;16.00;51.71
74540;SHT31;66042;51.090;-115.340;2023-08-17T13:03:19;15.99;51.65
74540;SHT31;66042;51.090;-115.340;2023-08-17T13:05:46;16.00;51.63
74540;SHT31;66042;51.090;-115.340;2023-08-17T13:08:13;16.02;51.28
74540;SHT31;66042;51.090;-115.340;2023-08-17T13:10:40;16.05;51.15
74540;SHT31;66042;51.090;-115.340;2023-08-17T13:13:07;16.07;51.29
74540;SHT31;66042;51.090;-115.340;2023-08-17T13:15:34;16.08;51.47
74540;SHT31;66042;51.090;-115.340;2023-08-17T13:18:01;16.09;51.46
74540;SHT31;66042;51.090;-115.340;2023-08-17T13:20:28;16.09;51.43
74540;SHT31;66042;51.090;-115.340;2023-08-17T13:22:55;16.12;51.13
74540;SHT31;66042;51.090;-115.340;2023-08-17T13:25:21;16.13;51.15
74540;SHT31;66042;51.090;-115.340;2023-08-17T13:27:48;16.18;51.11
74540;SHT31;66042;51.090;-115.340;2023-08-17T13:30:17;16.19;51.16
74540;SHT31;66042;51.090;-115.340;2023-08-17T13:32:43;16.19;51.13
74540;SHT31;66042;51.090;-115.340;2023-08-17T13:35:11;16.20;51.14
74540;SHT31;66042;51.090;-115.340;2023-08-17T13:37:37;16.22;50.98
74540;SHT31;66042;51.090;-115.340;2023-08-17T13:40:05;16.22;51.08
74540;SHT31;66042;51.090;-115.340;2023-08-17T13:42:33;16.22;50.99
74540;SHT31;66042;51.090;-115.340;2023-08-17T13:45:01;16.21;51.08
74540;SHT31;66042;51.090;-115.340;2023-08-17T13:47:29;16.23;51.35
74540;SHT31;66042;51.090;-115.340;2023-08-17T13:49:56;16.25;51.18
74540;SHT31;66042;51.090;-115.340;2023-08-17T13:52:23;16.25;51.09
74540;SHT31;66042;51.090;-115.340;2023-08-17T13:54:50;16.28;51.10
74540;SHT31;66042;51.090;-115.340;2023-08-17T13:57:17;16.29;50.89
74540;SHT31;66042;51.090;-115.340;2023-08-17T13:59:44;16.30;50.93
74540;SHT31;66042;51.090;-115.340;2023-08-17T14:02:11;16.32;50.91
74540;SHT31;66042;51.090;-115.340;2023-08-17T14:04:38;16.33;51.07
74540;SHT31;66042;51.090;-115.340;2023-08-17T14:07:05;16.35;51.11
74540;SHT31;66042;51.090;-115.340;2023-08-17T14:09:32;16.36;50.99
74540;SHT31;66042;51.090;-115.340;2023-08-17T14:11:59;16.38;50.95
74540;SHT31;66042;51.090;-115.340;2023-08-17T14:14:27;16.39;51.01
74540;SHT31;66042;51.090;-115.340;2023-08-17T14:16:53;16.39;50.96
74540;SHT31;66042;51.090;-115.340;2023-08-17T14:19:20;16.39;50.98
74540;SHT31;66042;51.090;-115.340;2023-08-17T14:21:47;16.42;51.02
74540;SHT31;66042;51.090;-115.340;2023-08-17T14:24:13;16.45;50.88
74540;SHT31;66042;51.090;-115.340;2023-08-17T14:26:40;16.50;50.77
74540;SHT31;66042;51.090;-115.340;2023-08-17T14:29:07;16.56;50.75
74540;SHT31;66042;51.090;-115.340;2023-08-17T14:31:33;16.60;50.75
74540;SHT31;66042;51.090;-115.340;2023-08-17T14:34:00;16.64;51.08
74540;SHT31;66042;51.090;-115.340;2023-08-17T14:36:26;16.70;51.04
74540;SHT31;66042;51.090;-115.340;2023-08-17T14:38:53;16.77;50.83
74540;SHT31;66042;51.090;-115.340;2023-08-17T14:41:19;16.81;50.76
74540;SHT31;66042;51.090;-115.340;2023-08-17T14:43:46;16.88;50.79
74540;SHT31;66042;51.090;-115.340;2023-08-17T14:46:13;16.92;51.16
74540;SHT31;66042;51.090;-115.340;2023-08-17T14:48:39;16.96;50.68
74540;SHT31;66042;51.090;-115.340;2023-08-17T14:51:06;17.02;50.46
74540;SHT31;66042;51.090;-115.340;2023-08-17T14:53:32;17.08;50.56
74540;SHT31;66042;51.090;-115.340;2023-08-17T14:55:59;17.13;50.17
74540;SHT31;66042;51.090;-115.340;2023-08-17T14:58:26;17.18;50.29